Time;durP1;ratioP1;P1;durP2;ratioP2;P2;SDS_P1;SDS_P2;PMS_P1;PMS_P2;Temp;Humidity;BMP_temperature;BMP_pressure;BME280_temperature;BME280_humidity;BME280_pressure;Samples;Min_cycle;Max_cycle;Signal;HPM_P1;HPM_P2
2021/12/29 00:02:00;;;;;;;9.52;1.35;;;9.50;82.00;;;;;;5009760;28;20037;-67
2021/12/29 00:04:27;;;;;;;5.78;1.13;;;9.60;82.10;;;;;;5001548;28;20588;-67
2021/12/29 00:06:56;;;;;;;12.00;1.85;;;9.50;82.00;;;;;;5006292;28;20198;-66
2021/12/29 00:09:22;;;;;;;7.88;1.63;;;9.50;81.90;;;;;;5008661;28;20064;-66
2021/12/29 00:11:48;;;;;;;9.05;1.35;;;9.60;81.90;;;;;;4999655;28;20481;-67
2021/12/29 00:14:14;;;;;;;13.07;1.58;;;9.50;81.70;;;;;;5014232;28;20044;-66
2021/12/29 00:16:40;;;;;;;12.85;2.00;;;9.50;81.80;;;;;;4996152;28;20141;-66
2021/12/29 00:19:06;;;;;;;8.85;1.58;;;9.50;81.50;;;;;;4997328;28;20505;-67
2021/12/29 00:21:33;;;;;;;7.68;1.55;;;9.50;82.40;;;;;;4999266;28;20050;-67
2021/12/29 00:24:00;;;;;;;10.07;1.60;;;9.50;81.40;;;;;;5008192;28;20114;-66
2021/12/29 00:26:28;;;;;;;9.25;1.27;;;9.50;81.40;;;;;;5007323;28;21206;-66
2021/12/29 00:28:54;;;;;;;10.15;1.55;;;9.50;81.30;;;;;;5006747;28;20041;-66
2021/12/29 00:31:20;;;;;;;9.55;1.65;;;9.50;81.30;;;;;;5008174;28;20060;-66
2021/12/29 00:33:46;;;;;;;7.60;1.60;;;9.50;81.00;;;;;;5005255;28;20038;-66
2021/12/29 00:36:12;;;;;;;10.35;1.75;;;9.50;81.20;;;;;;5007535;28;20068;-66
2021/12/29 00:38:37;;;;;;;8.23;1.27;;;9.50;81.20;;;;;;5000382;28;20631;-66
2021/12/29 00:41:04;;;;;;;8.52;1.40;;;9.50;81.20;;;;;;5003036;28;20049;-65
2021/12/29 00:43:30;;;;;;;7.18;1.25;;;9.50;80.70;;;;;;4998962;28;20066;-66
2021/12/29 00:45:55;;;;;;;9.60;1.45;;;9.50;80.60;;;;;;5004842;28;20566;-66
2021/12/29 00:48:24;;;;;;;8.35;1.30;;;9.50;80.60;;;;;;5004587;28;20668;-66
2021/12/29 00:50:50;;;;;;;8.48;1.30;;;9.40;80.60;;;;;;5001544;28;20041;-63
2021/12/29 00:53:16;;;;;;;7.45;1.70;;;9.40;79.80;;;;;;4998264;28;20026;-66
2021/12/29 00:55:42;;;;;;;10.15;1.48;;;9.40;80.20;;;;;;5011801;28;20618;-66
2021/12/29 00:58:08;;;;;;;11.55;1.27;;;9.40;80.90;;;;;;5001015;28;20045;-66
2021/12/29 01:00:40;;;;;;;9.43;1.50;;;9.50;80.10;;;;;;4997915;28;20030;-66
2021/12/29 01:03:07;;;;;;;11.80;1.50;;;9.40;80.10;;;;;;5000068;28;20120;-66
2021/12/29 01:05:33;;;;;;;6.05;1.10;;;9.50;80.10;;;;;;5006070;28;20033;-66
2021/12/29 01:07:59;;;;;;;9.15;1.45;;;9.50;80.00;;;;;;4994818;28;20867;-66
2021/12/29 01:10:26;;;;;;;7.50;1.33;;;9.50;79.80;;;;;;5002521;28;20117;-69
2021/12/29 01:12:58;;;;;;;5.03;1.10;;;9.50;79.60;;;;;;4995889;28;20149;-64
2021/12/29 01:15:33;;;;;;;7.60;1.02;;;9.50;79.60;;;;;;4995261;28;20038;-67
2021/12/29 01:18:03;;;;;;;5.13;1.30;;;9.50;79.60;;;;;;4995201;28;20061;-66
2021/12/29 01:20:30;;;;;;;8.40;1.33;;;9.50;79.60;;;;;;4998531;28;20580;-67
2021/12/29 01:22:58;;;;;;;6.78;1.13;;;9.50;79.40;;;;;;4999190;28;20487;-66
2021/12/29 01:25:24;;;;;;;11.10;1.60;;;9.50;79.60;;;;;;5006679;28;20412;-66
2021/12/29 01:27:50;;;;;;;9.85;1.33;;;9.50;79.60;;;;;;5006958;28;20065;-66
2021/12/29 01:30:16;;;;;;;6.80;1.25;;;9.50;79.60;;;;;;5004417;28;20053;-66
2021/12/29 01:32:42;;;;;;;13.18;1.40;;;9.40;79.30;;;;;;4993736;28;20140;-66
2021/12/29 01:35:10;;;;;;;10.55;1.60;;;9.40;79.40;;;;;;5004950;28;20064;-66
2021/12/29 01:37:36;;;;;;;9.27;1.38;;;9.40;79.30;;;;;;4995336;28;20501;-66
2021/12/29 01:40:06;;;;;;;12.20;1.80;;;9.40;79.50;;;;;;5003450;28;20045;-66
2021/12/29 01:42:32;;;;;;;8.60;1.80;;;9.40;79.60;;;;;;5006026;28;20096;-66
2021/12/29 01:44:57;;;;;;;9.10;1.77;;;9.40;79.50;;;;;;5000715;28;20501;-66
2021/12/29 01:47:25;;;;;;;12.90;1.83;;;9.40;79.50;;;;;;4999764;28;20033;-67
2021/12/29 01:49:51;;;;;;;9.30;1.35;;;9.40;79.70;;;;;;4999721;28;20129;-66
2021/12/29 01:52:22;;;;;;;9.75;1.67;;;9.40;79.70;;;;;;4999024;28;20037;-66
2021/12/29 01:54:47;;;;;;;10.32;1.60;;;9.40;79.80;;;;;;4996607;28;20042;-65
2021/12/29 01:57:13;;;;;;;9.02;1.45;;;9.40;79.90;;;;;;5000034;28;20714;-67
2021/12/29 01:59:40;;;;;;;9.43;1.70;;;9.40;79.80;;;;;;5001092;28;20037;-66
2021/12/29 02:02:05;;;;;;;8.82;1.63;;;9.30;79.90;;;;;;5001612;28;20034;-66
2021/12/29 02:04:32;;;;;;;8.35;1.55;;;9.30;79.80;;;;;;5000723;28;20587;-67
2021/12/29 02:06:58;;;;;;;8.10;1.33;;;9.40;80.10;;;;;;4999430;28;20096;-66
2021/12/29 02:09:23;;;;;;;7.40;1.30;;;9.30;80.00;;;;;;5001712;28;20042;-65
2021/12/29 02:11:50;;;;;;;4.45;1.20;;;9.40;80.10;;;;;;4995062;28;20037;-66
2021/12/29 02:14:16;;;;;;;9.65;1.40;;;9.40;80.10;;;;;;4998889;28;20423;-66
2021/12/29 02:16:42;;;;;;;6.38;0.95;;;9.40;80.10;;;;;;5001445;28;20057;-66
2021/12/29 02:19:11;;;;;;;6.53;1.35;;;9.40;80.10;;;;;;4993998;28;20042;-67
2021/12/29 02:21:38;;;;;;;7.82;1.45;;;9.40;80.20;;;;;;4992105;28;20124;-67
2021/12/29 02:26:33;;;;;;;4.57;0.80;;;9.40;80.10;;;;;;4998315;28;20032;-66
2021/12/29 02:29:01;;;;;;;7.22;0.93;;;9.40;80.10;;;;;;4999404;28;20034;-67
2021/12/29 02:31:27;;;;;;;5.35;0.93;;;9.40;80.10;;;;;;5002197;28;20088;-67
2021/12/29 02:33:54;;;;;;;6.20;1.20;;;9.50;80.10;;;;;;4997976;28;20042;-67
2021/12/29 02:36:21;;;;;;;4.22;0.93;;;9.40;80.10;;;;;;4997834;28;20033;-66
2021/12/29 02:38:53;;;;;;;2.88;0.80;;;9.40;80.10;;;;;;5002447;28;20042;-63
2021/12/29 02:41:20;;;;;;;5.32;0.95;;;9.50;80.80;;;;;;4998552;28;20413;-66
2021/12/29 02:43:47;;;;;;;5.00;0.80;;;9.50;80.20;;;;;;5017573;28;20112;-66
2021/12/29 02:46:15;;;;;;;4.68;0.88;;;9.50;80.30;;;;;;5001982;28;20077;-66
2021/12/29 02:48:49;;;;;;;4.57;0.80;;;9.50;80.20;;;;;;5001788;28;20030;-66
2021/12/29 02:51:15;;;;;;;7.57;0.80;;;9.50;80.30;;;;;;4998432;28;20583;-66
2021/12/29 02:53:41;;;;;;;3.90;0.93;;;9.50;80.30;;;;;;4994793;28;20079;-66
2021/12/29 02:56:07;;;;;;;3.78;0.80;;;9.50;80.30;;;;;;5002858;28;20038;-67
2021/12/29 02:58:33;;;;;;;4.75;0.70;;;9.50;80.30;;;;;;4998723;28;20120;-66
2021/12/29 03:01:01;;;;;;;2.85;0.60;;;9.50;80.30;;;;;;4999585;28;20107;-66
2021/12/29 03:03:28;;;;;;;3.53;0.50;;;9.50;80.30;;;;;;5003900;28;20038;-66
2021/12/29 03:05:54;;;;;;;3.65;1.02;;;9.50;80.30;;;;;;4999138;28;20030;-66
2021/12/29 03:08:21;;;;;;;3.95;0.68;;;9.50;80.40;;;;;;4999800;28;20513;-66
2021/12/29 03:10:52;;;;;;;4.50;0.73;;;9.50;80.50;;;;;;4998893;28;20095;-67
2021/12/29 03:13:19;;;;;;;3.22;0.70;;;9.50;80.50;;;;;;4995594;28;20061;-67
2021/12/29 03:15:44;;;;;;;2.90;0.88;;;9.50;80.50;;;;;;4992663;28;20056;-66
2021/12/29 03:18:10;;;;;;;4.15;0.80;;;9.50;80.50;;;;;;4992625;28;20473;-66
2021/12/29 03:20:36;;;;;;;3.45;0.60;;;9.50;80.60;;;;;;5010260;28;20036;-66
2021/12/29 03:23:02;;;;;;;5.95;1.02;;;9.50;80.60;;;;;;4996181;28;20129;-67
2021/12/29 03:25:28;;;;;;;6.72;0.85;;;9.50;80.80;;;;;;4994973;28;20057;-67
2021/12/29 03:27:58;;;;;;;4.93;0.80;;;9.50;81.60;;;;;;5005691;28;20116;-66
2021/12/29 03:30:26;;;;;;;5.20;1.00;;;9.50;80.80;;;;;;5005044;28;20622;-66
2021/12/29 03:33:02;;;;;;;6.97;0.75;;;9.50;80.90;;;;;;5005229;28;20045;-66
2021/12/29 03:35:29;;;;;;;3.58;0.60;;;9.50;81.90;;;;;;5001500;28;20138;-67
2021/12/29 03:37:55;;;;;;;5.75;0.80;;;9.50;81.10;;;;;;5002955;28;20076;-67
2021/12/29 03:40:20;;;;;;;3.70;0.65;;;9.50;81.20;;;;;;5004383;28;20065;-66
2021/12/29 03:42:46;;;;;;;5.13;0.80;;;9.50;81.30;;;;;;4999377;28;20069;-67
2021/12/29 03:45:11;;;;;;;5.90;1.00;;;9.50;81.30;;;;;;5003110;28;20049;-67
2021/12/29 03:47:37;;;;;;;5.30;0.85;;;9.50;81.30;;;;;;5005575;28;20030;-67
2021/12/29 03:50:03;;;;;;;4.38;1.10;;;9.50;81.40;;;;;;5008001;28;20062;-67
2021/12/29 03:52:29;;;;;;;4.68;0.60;;;9.50;81.50;;;;;;4997501;28;20133;-66
2021/12/29 03:54:54;;;;;;;4.63;0.95;;;9.50;81.50;;;;;;5003537;28;20065;-65
2021/12/29 03:57:20;;;;;;;3.85;0.68;;;9.50;81.70;;;;;;4999087;28;20527;-67
2021/12/29 03:59:45;;;;;;;4.03;0.85;;;9.40;81.70;;;;;;5002284;28;20764;-66
2021/12/29 04:02:11;;;;;;;2.72;0.70;;;9.40;81.70;;;;;;5006165;28;20044;-66
2021/12/29 04:04:37;;;;;;;39.33;15.27;;;9.40;81.80;;;;;;5007351;28;20255;-66
2021/12/29 04:07:03;;;;;;;23.70;10.93;;;9.40;81.90;;;;;;4994783;28;20042;-66
2021/12/29 04:09:28;;;;;;;9.60;3.90;;;9.40;81.90;;;;;;5004551;28;20409;-66
2021/12/29 04:11:54;;;;;;;5.05;1.33;;;9.40;82.10;;;;;;4999788;28;20038;-67
2021/12/29 04:14:25;;;;;;;2.97;1.10;;;9.40;82.10;;;;;;5005547;28;20034;-66
2021/12/29 04:16:51;;;;;;;4.63;1.15;;;9.40;82.20;;;;;;5000822;28;20045;-66
2021/12/29 04:19:32;;;;;;;4.60;0.95;;;9.40;82.30;;;;;;5006838;28;20109;-65
2021/12/29 04:21:58;;;;;;;4.07;0.70;;;9.40;82.40;;;;;;5002563;28;20042;-66
2021/12/29 04:24:25;;;;;;;3.58;0.95;;;9.40;82.40;;;;;;4997624;28;20481;-66
2021/12/29 04:26:51;;;;;;;4.43;0.82;;;9.40;82.40;;;;;;4997055;28;20121;-65
2021/12/29 04:29:16;;;;;;;5.43;1.13;;;9.40;82.50;;;;;;5000063;28;20669;-66
2021/12/29 04:31:43;;;;;;;7.03;0.90;;;9.40;82.40;;;;;;4999517;28;20084;-66
2021/12/29 04:34:09;;;;;;;3.10;0.65;;;9.40;82.40;;;;;;5001518;28;20097;-66
2021/12/29 04:36:35;;;;;;;5.40;0.85;;;9.40;82.40;;;;;;5005652;28;20049;-66
2021/12/29 04:39:03;;;;;;;5.22;1.10;;;9.40;82.40;;;;;;5005695;28;20030;-66
2021/12/29 04:41:29;;;;;;;7.18;1.05;;;9.40;82.40;;;;;;5004248;28;20025;-65
2021/12/29 04:43:54;;;;;;;3.83;0.85;;;9.40;82.40;;;;;;4999245;28;20517;-67
2021/12/29 04:46:27;;;;;;;4.18;0.60;;;9.40;82.40;;;;;;5001315;28;20092;-67
2021/12/29 04:49:01;;;;;;;6.93;1.02;;;9.40;82.30;;;;;;5003573;28;20066;-67
2021/12/29 04:51:34;;;;;;;3.53;0.77;;;9.40;83.10;;;;;;5000847;28;20042;-67
2021/12/29 04:54:05;;;;;;;9.15;1.13;;;9.50;82.40;;;;;;4995457;28;20285;-66
2021/12/29 04:56:32;;;;;;;7.72;1.10;;;9.40;82.20;;;;;;4997181;28;20045;-66
2021/12/29 04:58:58;;;;;;;6.75;1.25;;;9.50;82.20;;;;;;4995191;28;20038;-67
2021/12/29 05:01:23;;;;;;;7.70;1.10;;;9.50;82.20;;;;;;5000348;28;20069;-66
2021/12/29 05:03:49;;;;;;;4.97;0.95;;;9.50;82.20;;;;;;5003944;28;20033;-65
2021/12/29 05:08:40;;;;;;;3.90;0.95;;;9.50;82.20;;;;;;5007413;28;20038;-66
2021/12/29 05:11:13;;;;;;;6.75;1.00;;;9.50;82.20;;;;;;4998789;28;20076;-66
2021/12/29 05:13:41;;;;;;;6.32;1.23;;;9.50;82.10;;;;;;4999667;28;20049;-67
2021/12/29 05:16:06;;;;;;;6.60;0.90;;;9.50;82.20;;;;;;5001264;28;20520;-66
2021/12/29 05:18:34;;;;;;;7.82;1.17;;;9.50;82.10;;;;;;4998100;28;20069;-67
2021/12/29 05:21:01;;;;;;;4.45;1.00;;;9.50;82.20;;;;;;4999203;28;20038;-66
2021/12/29 05:23:27;;;;;;;7.95;1.38;;;9.50;82.20;;;;;;4998989;28;20046;-66
2021/12/29 05:25:54;;;;;;;5.03;1.30;;;9.50;82.20;;;;;;4996711;28;20172;-67
2021/12/29 05:28:23;;;;;;;7.75;1.05;;;9.50;82.20;;;;;;5005673;28;20030;-66
2021/12/29 05:30:49;;;;;;;5.28;0.93;;;9.60;82.20;;;;;;5001748;28;20057;-66
2021/12/29 05:33:15;;;;;;;8.85;0.88;;;9.60;82.20;;;;;;5006833;28;20034;-66
2021/12/29 05:35:42;;;;;;;5.25;1.10;;;9.50;82.20;;;;;;4998635;28;20030;-66
2021/12/29 05:38:07;;;;;;;5.78;1.30;;;9.50;82.10;;;;;;4996842;28;20037;-66
2021/12/29 05:40:33;;;;;;;5.78;0.98;;;9.50;82.10;;;;;;5000955;28;20031;-66
2021/12/29 05:42:59;;;;;;;8.02;1.00;;;9.50;82.20;;;;;;5000503;28;21006;-66
2021/12/29 05:45:27;;;;;;;3.60;0.75;;;9.50;82.10;;;;;;4996317;28;20041;-66
2021/12/29 05:47:53;;;;;;;5.25;1.02;;;9.50;82.10;;;;;;5004970;28;20432;-66
2021/12/29 05:50:22;;;;;;;3.60;0.60;;;9.50;82.10;;;;;;5002069;28;20448;-66
2021/12/29 05:52:48;;;;;;;4.82;0.88;;;9.50;82.10;;;;;;5000625;28;20045;-67
2021/12/29 05:55:14;;;;;;;4.03;1.23;;;9.50;82.10;;;;;;4999144;28;20053;-66
2021/12/29 05:57:40;;;;;;;5.28;0.80;;;9.50;82.20;;;;;;5004222;28;20058;-66
2021/12/29 06:00:09;;;;;;;2.83;0.55;;;9.50;82.20;;;;;;5003616;28;20572;-66
2021/12/29 06:02:34;;;;;;;2.00;0.63;;;9.50;82.20;;;;;;5000411;28;20605;-66
2021/12/29 06:05:00;;;;;;;2.58;0.60;;;9.50;82.30;;;;;;4999841;28;21116;-66
2021/12/29 06:07:26;;;;;;;4.32;0.90;;;9.50;82.40;;;;;;5005702;28;20107;-65
2021/12/29 06:09:51;;;;;;;2.17;0.75;;;9.50;82.40;;;;;;5005793;28;20712;-67
2021/12/29 06:12:17;;;;;;;2.55;0.55;;;9.50;82.40;;;;;;5003321;28;20030;-66
2021/12/29 06:14:44;;;;;;;2.95;0.65;;;9.50;82.40;;;;;;5006388;28;20041;-66
2021/12/29 06:17:11;;;;;;;3.17;0.90;;;9.50;82.50;;;;;;5005272;28;20120;-67
2021/12/29 06:19:37;;;;;;;4.35;1.05;;;9.50;82.60;;;;;;5004865;28;20033;-66
2021/12/29 06:22:08;;;;;;;4.65;1.48;;;9.50;82.60;;;;;;5005984;28;20033;-66
2021/12/29 06:24:34;;;;;;;7.90;4.78;;;9.50;82.60;;;;;;5004604;28;20026;-66
2021/12/29 06:26:59;;;;;;;4.28;1.60;;;9.50;82.70;;;;;;5005763;28;20037;-67
2021/12/29 06:29:25;;;;;;;4.82;2.03;;;9.50;82.60;;;;;;5005465;28;20144;-66
2021/12/29 06:31:51;;;;;;;3.70;0.90;;;9.50;82.70;;;;;;5001178;28;20149;-66
2021/12/29 06:34:17;;;;;;;3.90;1.10;;;9.50;82.70;;;;;;5001722;28;20034;-66
2021/12/29 06:36:43;;;;;;;3.67;0.80;;;9.60;82.70;;;;;;5005023;28;20037;-66
2021/12/29 06:39:08;;;;;;;3.38;0.80;;;9.60;82.70;;;;;;5005454;28;20061;-66
2021/12/29 06:41:34;;;;;;;3.92;0.43;;;9.60;82.70;;;;;;5003555;28;20117;-66
2021/12/29 06:43:59;;;;;;;3.70;0.75;;;9.60;82.70;;;;;;5003723;28;20042;-66
2021/12/29 06:46:25;;;;;;;5.78;0.70;;;9.60;82.70;;;;;;5001228;28;20037;-67
2021/12/29 06:48:51;;;;;;;2.78;0.70;;;9.60;82.70;;;;;;5000328;28;20033;-66
2021/12/29 06:51:16;;;;;;;6.70;0.88;;;9.60;82.70;;;;;;5003820;28;20029;-66
2021/12/29 06:53:42;;;;;;;4.15;0.82;;;9.60;82.70;;;;;;5004861;28;20696;-66
2021/12/29 06:56:07;;;;;;;5.07;1.02;;;9.60;82.60;;;;;;5003333;28;20442;-67
2021/12/29 06:58:34;;;;;;;3.15;0.57;;;9.60;82.70;;;;;;5004471;28;20040;-66
2021/12/29 07:00:59;;;;;;;5.10;0.98;;;9.60;82.70;;;;;;5003533;28;20046;-66
2021/12/29 07:03:26;;;;;;;4.75;1.10;;;9.70;82.70;;;;;;5000846;28;20386;-66
2021/12/29 07:05:54;;;;;;;6.63;1.45;;;9.60;82.80;;;;;;4998692;28;20030;-66
2021/12/29 07:08:20;;;;;;;3.67;0.90;;;9.60;82.90;;;;;;4993581;28;20571;-67
2021/12/29 07:10:46;;;;;;;5.18;0.98;;;9.60;83.00;;;;;;4995156;28;20092;-67
2021/12/29 07:13:11;;;;;;;4.57;0.63;;;9.60;83.00;;;;;;4996469;28;20042;-66
2021/12/29 07:15:37;;;;;;;5.72;1.10;;;9.60;82.90;;;;;;4993361;28;20104;-66
2021/12/29 07:18:04;;;;;;;6.13;0.90;;;9.60;82.90;;;;;;4994372;28;20620;-65
2021/12/29 07:20:30;;;;;;;2.90;1.00;;;9.60;82.90;;;;;;4999443;28;20041;-66
2021/12/29 07:22:56;;;;;;;6.90;0.85;;;9.60;82.90;;;;;;4994648;28;20053;-65
2021/12/29 07:25:22;;;;;;;3.90;0.82;;;9.60;82.90;;;;;;4993023;28;20045;-67
2021/12/29 07:27:48;;;;;;;7.38;1.33;;;9.60;82.80;;;;;;4995284;28;20043;-68
2021/12/29 07:30:14;;;;;;;3.28;0.82;;;9.60;82.90;;;;;;4996308;28;20046;-66
2021/12/29 07:32:40;;;;;;;3.25;1.17;;;9.60;82.80;;;;;;4979415;28;20060;-68
2021/12/29 07:35:06;;;;;;;6.38;0.93;;;9.60;82.80;;;;;;4985007;28;21005;-66
2021/12/29 07:37:32;;;;;;;8.55;1.40;;;9.60;82.90;;;;;;4987538;28;20497;-67
2021/12/29 07:39:57;;;;;;;6.60;1.10;;;9.60;82.80;;;;;;4986320;28;20050;-65
2021/12/29 07:42:23;;;;;;;6.95;1.70;;;9.60;82.90;;;;;;4985061;28;20117;-66
2021/12/29 07:44:50;;;;;;;7.07;2.03;;;9.60;82.90;;;;;;4981769;28;20045;-67
2021/12/29 07:47:16;;;;;;;4.93;1.50;;;9.60;82.90;;;;;;4984022;28;20038;-67
2021/12/29 07:49:42;;;;;;;4.35;1.50;;;9.60;82.90;;;;;;4977953;28;20038;-67
2021/12/29 07:52:08;;;;;;;9.00;3.33;;;9.60;82.90;;;;;;4987675;28;20169;-66
2021/12/29 07:54:33;;;;;;;4.53;1.50;;;9.70;82.90;;;;;;4984722;28;20070;-67
2021/12/29 07:56:59;;;;;;;3.00;1.30;;;9.70;83.00;;;;;;4988734;28;20168;-67
2021/12/29 07:59:25;;;;;;;4.50;1.20;;;9.70;82.90;;;;;;4979125;28;20456;-66
2021/12/29 08:01:50;;;;;;;5.15;1.00;;;9.70;82.80;;;;;;4988251;28;20842;-64
2021/12/29 08:04:19;;;;;;;4.45;1.08;;;9.70;82.80;;;;;;4984790;28;20529;-66
2021/12/29 08:06:45;;;;;;;3.53;0.90;;;9.70;83.50;;;;;;4986633;28;20030;-62
2021/12/29 08:09:11;;;;;;;7.28;1.20;;;9.70;82.70;;;;;;4984181;28;20035;-66
2021/12/29 08:11:40;;;;;;;5.47;1.02;;;9.70;82.60;;;;;;4986971;28;20120;-66
2021/12/29 08:14:07;;;;;;;4.68;1.05;;;9.70;82.60;;;;;;4983949;28;20508;-66
2021/12/29 08:16:33;;;;;;;3.45;0.80;;;9.70;82.60;;;;;;4989993;28;20041;-66
2021/12/29 08:18:58;;;;;;;5.45;0.80;;;9.70;82.60;;;;;;4985110;28;20058;-67
2021/12/29 08:21:24;;;;;;;6.18;0.90;;;9.70;82.50;;;;;;4993065;28;20057;-64
2021/12/29 08:23:50;;;;;;;5.00;1.00;;;9.70;82.40;;;;;;4982806;28;20030;-67
2021/12/29 08:26:15;;;;;;;6.72;1.10;;;9.70;82.40;;;;;;4994922;28;20995;-65
2021/12/29 08:28:41;;;;;;;4.82;1.23;;;9.70;82.40;;;;;;4987676;28;20603;-66
2021/12/29 08:31:07;;;;;;;6.78;0.90;;;9.70;82.40;;;;;;4989131;28;20136;-64
2021/12/29 08:33:37;;;;;;;4.72;1.02;;;9.80;82.40;;;;;;4985107;28;20037;-67
2021/12/29 08:36:05;;;;;;;6.57;0.93;;;9.80;82.40;;;;;;4990647;28;20195;-66
2021/12/29 08:38:31;;;;;;;6.57;1.55;;;9.80;82.40;;;;;;4984580;28;20122;-65
2021/12/29 08:40:56;;;;;;;4.78;1.20;;;9.80;82.20;;;;;;4987723;28;20030;-67
2021/12/29 08:43:22;;;;;;;5.70;1.02;;;9.80;82.20;;;;;;4986678;28;20037;-67
2021/12/29 08:45:48;;;;;;;6.75;1.10;;;9.80;82.30;;;;;;4989953;28;20156;-66
2021/12/29 08:48:14;;;;;;;7.40;1.00;;;9.80;82.20;;;;;;4984187;28;20116;-66
2021/12/29 08:50:40;;;;;;;4.85;0.90;;;9.80;82.20;;;;;;4993610;28;20457;-65
2021/12/29 08:53:08;;;;;;;8.75;1.30;;;9.80;82.10;;;;;;4990827;28;20038;-66
2021/12/29 08:55:36;;;;;;;8.88;1.23;;;9.80;82.10;;;;;;4993218;28;20121;-66
2021/12/29 08:58:03;;;;;;;6.10;1.15;;;9.80;82.10;;;;;;4992296;28;20038;-64
2021/12/29 09:00:28;;;;;;;8.05;2.63;;;9.80;82.00;;;;;;4983116;28;20034;-67
2021/12/29 09:02:54;;;;;;;9.30;1.65;;;9.90;82.00;;;;;;4994926;28;20489;-66
2021/12/29 09:05:20;;;;;;;7.35;1.25;;;9.80;82.00;;;;;;4990917;28;20042;-66
2021/12/29 09:07:46;;;;;;;6.72;1.35;;;9.90;82.10;;;;;;4994913;28;20033;-67
2021/12/29 09:10:18;;;;;;;5.63;1.05;;;9.90;82.90;;;;;;4988554;28;20033;-65
2021/12/29 09:12:47;;;;;;;6.25;1.30;;;9.90;81.90;;;;;;4984884;28;20631;-63
2021/12/29 09:15:14;;;;;;;9.10;1.50;;;9.90;81.90;;;;;;4987694;28;20041;-66
2021/12/29 09:17:40;;;;;;;8.32;1.50;;;9.90;81.90;;;;;;4987380;28;20041;-64
2021/12/29 09:20:13;;;;;;;7.13;1.27;;;9.90;81.90;;;;;;4981840;28;20069;-66
2021/12/29 09:22:39;;;;;;;7.28;1.23;;;9.90;81.90;;;;;;4994572;28;20524;-67
2021/12/29 09:25:06;;;;;;;10.48;1.13;;;10.00;81.90;;;;;;4987015;28;20137;-66
2021/12/29 09:27:31;;;;;;;4.22;1.15;;;10.00;81.90;;;;;;4991291;28;20556;-66
2021/12/29 09:29:57;;;;;;;4.95;1.13;;;10.00;81.90;;;;;;4985580;28;20049;-67
2021/12/29 09:32:23;;;;;;;8.02;1.52;;;10.00;82.70;;;;;;4987599;28;20508;-67
2021/12/29 09:34:50;;;;;;;7.65;1.33;;;10.00;81.70;;;;;;4982947;28;20500;-62
2021/12/29 09:37:16;;;;;;;10.05;1.50;;;10.10;81.70;;;;;;4989982;28;20034;-67
2021/12/29 09:39:42;;;;;;;12.45;1.70;;;10.10;81.70;;;;;;4998161;28;20175;-67
2021/12/29 09:42:07;;;;;;;7.47;1.48;;;10.10;81.70;;;;;;5003526;28;20030;-67
2021/12/29 09:44:33;;;;;;;10.88;1.60;;;10.10;81.70;;;;;;5002747;28;20049;-66
2021/12/29 09:46:59;;;;;;;5.68;1.33;;;10.10;81.60;;;;;;5003801;28;20029;-67
2021/12/29 09:49:25;;;;;;;5.50;1.50;;;10.20;81.70;;;;;;5003388;28;20030;-67
2021/12/29 09:51:51;;;;;;;9.30;1.85;;;10.20;81.70;;;;;;5000329;28;20037;-67
2021/12/29 09:54:18;;;;;;;8.35;2.10;;;10.20;81.70;;;;;;4992695;28;20045;-66
2021/12/29 09:56:43;;;;;;;13.15;3.90;;;10.20;81.70;;;;;;4987148;28;20121;-66
2021/12/29 09:59:09;;;;;;;8.07;2.63;;;10.20;81.60;;;;;;4987860;28;20392;-65
2021/12/29 10:01:35;;;;;;;8.77;2.10;;;10.30;81.60;;;;;;4989133;28;20034;-66
2021/12/29 10:04:01;;;;;;;12.95;4.82;;;10.30;81.50;;;;;;4988818;28;20034;-67
2021/12/29 10:06:27;;;;;;;10.57;2.05;;;10.30;81.50;;;;;;4981490;28;20049;-66
2021/12/29 10:08:53;;;;;;;9.68;2.35;;;10.30;81.50;;;;;;4990528;28;20042;-65
2021/12/29 10:11:29;;;;;;;6.82;1.35;;;10.40;81.50;;;;;;4985085;28;20030;-66
2021/12/29 10:13:55;;;;;;;6.90;2.35;;;10.40;81.30;;;;;;4986351;28;20536;-67
2021/12/29 10:16:29;;;;;;;9.07;2.40;;;10.40;81.40;;;;;;4979973;28;20045;-66
2021/12/29 10:19:12;;;;;;;7.80;2.13;;;10.50;81.20;;;;;;4986191;28;20096;-66
2021/12/29 10:21:45;;;;;;;9.80;2.00;;;10.50;81.00;;;;;;4994973;28;20044;-66
2021/12/29 10:24:12;;;;;;;9.02;2.47;;;10.50;81.20;;;;;;5006528;28;20033;-66
2021/12/29 10:26:43;;;;;;;6.40;2.40;;;10.60;81.10;;;;;;5006637;28;20516;-66
2021/12/29 10:29:16;;;;;;;8.77;2.08;;;10.60;81.00;;;;;;4997598;28;20053;-66
2021/12/29 10:31:47;;;;;;;9.05;1.65;;;10.60;81.00;;;;;;4999266;28;20121;-65
2021/12/29 10:34:18;;;;;;;6.82;1.67;;;10.70;81.20;;;;;;4997269;28;20620;-67
2021/12/29 10:36:57;;;;;;;13.20;1.92;;;10.70;80.80;;;;;;4984606;28;20052;-65
2021/12/29 10:39:29;;;;;;;8.38;1.70;;;10.70;80.30;;;;;;4992305;28;20104;-65
2021/12/29 10:41:58;;;;;;;8.60;1.60;;;10.70;80.20;;;;;;4994451;28;20026;-64
2021/12/29 10:44:34;;;;;;;12.85;1.83;;;10.80;80.30;;;;;;4997021;28;20132;-66
2021/12/29 10:47:02;;;;;;;8.98;1.90;;;10.80;79.80;;;;;;4992624;28;20718;-66
2021/12/29 10:49:29;;;;;;;11.80;2.20;;;10.80;80.10;;;;;;4992825;28;20041;-66
2021/12/29 10:51:57;;;;;;;8.30;1.60;;;10.80;80.10;;;;;;4994786;28;20030;-66
2021/12/29 10:54:26;;;;;;;11.57;2.20;;;10.80;80.00;;;;;;4995894;28;20034;-66
2021/12/29 10:57:13;;;;;;;14.65;3.58;;;10.80;79.80;;;;;;4990615;28;20054;-66
2021/12/29 10:59:42;;;;;;;10.20;1.83;;;10.80;79.60;;;;;;5008806;28;20117;-66
2021/12/29 11:02:11;;;;;;;7.10;1.40;;;10.80;79.80;;;;;;4992775;28;20056;-64
2021/12/29 11:04:37;;;;;;;10.18;1.88;;;10.80;79.20;;;;;;5014122;28;20139;-66
2021/12/29 11:07:04;;;;;;;6.45;1.70;;;10.80;79.30;;;;;;4997880;28;20034;-64
2021/12/29 11:09:32;;;;;;;6.97;1.67;;;10.80;79.10;;;;;;4996984;28;20090;-66
2021/12/29 11:11:59;;;;;;;6.70;1.30;;;10.80;79.10;;;;;;4988505;28;20125;-67
2021/12/29 11:14:32;;;;;;;7.70;1.58;;;10.80;78.80;;;;;;4991364;28;20738;-66
2021/12/29 11:17:08;;;;;;;6.15;1.38;;;10.80;78.60;;;;;;4998166;28;20041;-66
2021/12/29 11:19:37;;;;;;;6.88;1.42;;;10.80;78.20;;;;;;4996605;28;20072;-66
2021/12/29 11:22:14;;;;;;;4.32;1.20;;;10.80;78.50;;;;;;4992508;28;20738;-65
2021/12/29 11:24:43;;;;;;;5.47;1.17;;;10.80;78.40;;;;;;4993830;28;20076;-64
2021/12/29 11:27:15;;;;;;;5.22;1.33;;;10.90;78.30;;;;;;4998546;28;20045;-66
2021/12/29 11:29:59;;;;;;;6.25;1.20;;;10.80;77.90;;;;;;4998549;28;20451;-67
2021/12/29 11:32:53;;;;;;;5.13;1.30;;;10.90;77.60;;;;;;4996216;28;20041;-66
2021/12/29 11:35:23;;;;;;;9.60;1.60;;;10.90;78.40;;;;;;4993615;28;20031;-67
2021/12/29 11:37:51;;;;;;;6.10;2.20;;;10.90;78.30;;;;;;4997203;28;20124;-65
2021/12/29 11:40:21;;;;;;;5.68;1.90;;;10.90;78.20;;;;;;4996686;28;20030;-66
2021/12/29 11:42:47;;;;;;;4.70;1.20;;;10.90;78.30;;;;;;4993096;28;20037;-66
2021/12/29 11:45:14;;;;;;;5.35;1.17;;;10.90;78.30;;;;;;4996279;28;20100;-64
2021/12/29 11:47:43;;;;;;;6.03;1.10;;;10.90;77.90;;;;;;4997449;28;20030;-66
2021/12/29 11:50:12;;;;;;;7.30;1.55;;;10.90;77.60;;;;;;5000303;28;20369;-67
2021/12/29 11:53:16;;;;;;;3.78;0.82;;;10.80;77.50;;;;;;4998091;28;20038;-67
2021/12/29 11:55:47;;;;;;;1.85;0.65;;;10.80;76.50;;;;;;4996838;28;20405;-65
2021/12/29 11:58:18;;;;;;;2.45;1.88;;;10.80;77.00;;;;;;5005098;28;20045;-66
2021/12/29 12:00:58;;;;;;;4.78;1.48;;;10.80;77.00;;;;;;5003911;28;20062;-66
2021/12/29 12:03:24;;;;;;;4.55;1.23;;;10.80;77.00;;;;;;5006993;28;20390;-65
2021/12/29 12:05:50;;;;;;;2.92;1.48;;;10.80;77.20;;;;;;5008522;28;20045;-66
2021/12/29 12:08:22;;;;;;;2.20;1.23;;;10.70;76.90;;;;;;5007239;28;20038;-66
2021/12/29 12:10:48;;;;;;;3.90;1.42;;;10.70;76.80;;;;;;5005751;28;20049;-67
2021/12/29 12:13:43;;;;;;;2.88;0.70;;;10.70;77.70;;;;;;5008359;28;20049;-66
2021/12/29 12:16:11;;;;;;;2.00;1.25;;;10.70;75.80;;;;;;4997955;28;20030;-66
2021/12/29 12:18:53;;;;;;;1.65;0.50;;;10.60;76.60;;;;;;5003309;28;20037;-66
2021/12/29 12:21:29;;;;;;;1.25;0.40;;;10.60;76.40;;;;;;5005797;28;21074;-66
2021/12/29 12:24:26;;;;;;;2.83;0.90;;;10.50;76.30;;;;;;5002319;28;20034;-66
2021/12/29 12:27:19;;;;;;;1.13;0.50;;;10.50;76.10;;;;;;5003071;28;20059;-67
2021/12/29 12:29:47;;;;;;;1.88;1.38;;;10.50;76.00;;;;;;4988608;28;20104;-67
2021/12/29 12:32:16;;;;;;;2.47;0.80;;;10.50;76.50;;;;;;5001920;28;20034;-66
2021/12/29 12:34:57;;;;;;;1.13;0.50;;;10.40;76.30;;;;;;5004228;28;20053;-66
2021/12/29 12:37:34;;;;;;;0.95;0.52;;;10.40;76.10;;;;;;5004745;28;20034;-66
2021/12/29 12:40:10;;;;;;;1.17;0.70;;;10.40;76.50;;;;;;5002691;28;20064;-66
2021/12/29 12:42:37;;;;;;;3.10;1.60;;;10.40;76.40;;;;;;5004000;28;20091;-63
2021/12/29 12:45:19;;;;;;;2.33;1.45;;;10.40;76.80;;;;;;5002554;28;20034;-66
2021/12/29 12:47:45;;;;;;;1.20;0.77;;;10.40;76.50;;;;;;5005387;28;20076;-66
2021/12/29 12:50:22;;;;;;;0.95;0.73;;;10.40;76.80;;;;;;5001496;28;20115;-66
2021/12/29 12:52:52;;;;;;;0.40;0.38;;;10.40;76.20;;;;;;5002623;28;20144;-67
2021/12/29 12:55:18;;;;;;;0.85;0.50;;;10.30;76.40;;;;;;5002701;28;20057;-66
2021/12/29 12:57:45;;;;;;;0.50;0.30;;;10.30;76.60;;;;;;4999440;28;20125;-66
2021/12/29 13:00:25;;;;;;;0.95;0.38;;;10.30;76.50;;;;;;5003900;28;20038;-66
2021/12/29 13:03:03;;;;;;;0.57;0.30;;;10.30;76.30;;;;;;5000545;28;20507;-66